createdAt,value
2023-03-19T00:01:08.593Z,7.30
2023-03-19T00:06:01.024Z,7.70
2023-03-19T00:10:53.317Z,7.23
2023-03-19T00:15:47.086Z,6.17
2023-03-19T00:25:50.308Z,8.70
2023-03-19T00:56:19.559Z,6.63
2023-03-19T01:06:25.618Z,5.60
2023-03-19T01:11:19.686Z,6.30
2023-03-19T01:16:19.125Z,7.87
2023-03-19T01:21:21.958Z,5.50
2023-03-19T01:26:15.988Z,5.90
2023-03-19T01:41:25.506Z,7.03
2023-03-19T01:46:28.184Z,5.33
2023-03-19T01:56:46.014Z,3.83
2023-03-19T02:01:50.923Z,5.70
2023-03-19T02:06:45.099Z,4.23
2023-03-19T02:11:38.217Z,4.83
2023-03-19T02:16:30.206Z,3.63
2023-03-19T02:21:23.483Z,3.60
2023-03-19T02:26:19.358Z,6.23
2023-03-19T02:31:13.464Z,4.17
2023-03-19T02:51:32.400Z,3.13
2023-03-19T02:56:24.082Z,3.77
2023-03-19T03:01:17.195Z,7.00
2023-03-19T03:06:12.504Z,5.47
2023-03-19T03:11:11.865Z,4.40
2023-03-19T03:21:11.643Z,4.50
2023-03-19T03:26:04.027Z,5.33
2023-03-19T03:31:00.886Z,6.87
2023-03-19T03:35:52.609Z,4.73
2023-03-19T03:40:44.456Z,4.07
2023-03-19T03:55:50.050Z,5.10
2023-03-19T04:00:41.806Z,5.73
2023-03-19T04:05:33.750Z,5.03
2023-03-19T04:10:25.828Z,4.03
2023-03-19T04:15:17.710Z,4.77
2023-03-19T04:20:11.029Z,5.30
2023-03-19T04:25:02.782Z,5.70
2023-03-19T04:29:54.684Z,5.47
2023-03-19T04:34:46.616Z,6.60
2023-03-19T04:39:38.591Z,7.07
2023-03-19T04:44:31.470Z,5.40
2023-03-19T04:49:24.428Z,6.93
2023-03-19T05:04:28.972Z,5.57
2023-03-19T05:09:20.672Z,6.03
2023-03-19T05:14:12.358Z,6.20
2023-03-19T05:19:04.034Z,5.37
2023-03-19T05:23:57.100Z,4.97
2023-03-19T05:28:48.795Z,7.53
2023-03-19T05:33:40.480Z,5.03
2023-03-19T05:38:32.149Z,5.40
2023-03-19T05:43:23.827Z,3.90
2023-03-19T05:48:15.488Z,7.53
2023-03-19T05:53:07.234Z,9.13
2023-03-19T05:57:59.044Z,5.33
2023-03-19T06:02:53.278Z,6.73
2023-03-19T06:07:45.160Z,8.53
2023-03-19T06:12:36.845Z,7.40
2023-03-19T06:17:29.344Z,6.23
2023-03-19T06:22:21.022Z,5.53
2023-03-19T06:27:12.741Z,7.87
2023-03-19T06:32:04.771Z,6.70
2023-03-19T06:36:56.812Z,7.50
2023-03-19T06:41:48.895Z,5.97
2023-03-19T06:46:40.603Z,7.00
2023-03-19T06:51:32.327Z,4.97
2023-03-19T06:56:24.038Z,8.77
2023-03-19T07:01:16.420Z,6.27
2023-03-19T07:06:08.239Z,4.83
2023-03-19T07:11:05.797Z,5.93
2023-03-19T07:15:57.536Z,8.83
2023-03-19T07:20:49.250Z,5.30
2023-03-19T07:25:41.307Z,5.40
2023-03-19T07:30:33.340Z,5.60
2023-03-19T07:35:25.423Z,5.83
2023-03-19T07:40:17.133Z,8.70
2023-03-19T07:45:09.603Z,5.33
2023-03-19T07:50:01.656Z,6.10
2023-03-19T07:54:54.054Z,5.13
2023-03-19T07:59:46.498Z,6.67
2023-03-19T08:09:44.304Z,6.90
2023-03-19T08:14:36.579Z,6.70
2023-03-19T08:19:28.659Z,5.60
2023-03-19T08:24:20.635Z,6.20
2023-03-19T08:29:12.799Z,6.20
2023-03-19T08:34:05.417Z,5.43
2023-03-19T08:38:59.084Z,6.37
2023-03-19T08:44:11.083Z,4.97
2023-03-19T08:49:05.763Z,6.07
2023-03-19T08:59:04.024Z,5.15
2023-03-19T09:03:56.798Z,5.00
2023-03-19T09:13:54.309Z,5.47
2023-03-19T09:18:46.004Z,4.20
2023-03-19T09:23:37.672Z,5.38
2023-03-19T09:28:29.477Z,4.47
2023-03-19T09:33:22.295Z,3.97
2023-03-19T09:38:13.997Z,5.57
2023-03-19T09:43:29.168Z,6.72
2023-03-19T09:48:53.752Z,5.72
2023-03-19T09:54:00.527Z,4.43
2023-03-19T09:58:52.707Z,6.47
2023-03-19T10:04:19.915Z,5.82
2023-03-19T10:09:40.769Z,5.60
2023-03-19T10:14:47.382Z,6.63
2023-03-19T10:20:28.588Z,6.18
2023-03-19T10:30:35.315Z,7.93
2023-03-19T10:35:47.608Z,5.25
2023-03-19T10:40:57.213Z,6.20
2023-03-19T10:45:49.375Z,4.15
2023-03-19T10:51:00.709Z,7.90
2023-03-19T10:56:00.132Z,5.13
2023-03-19T11:01:03.830Z,6.75
2023-03-19T11:06:26.252Z,6.30
2023-03-19T11:11:34.849Z,5.45
2023-03-19T11:16:26.608Z,6.43
2023-03-19T11:21:32.932Z,3.47
2023-03-19T11:26:30.565Z,4.80
2023-03-19T11:31:41.252Z,6.43
2023-03-19T11:37:20.303Z,2.67
2023-03-19T11:42:54.220Z,5.93
2023-03-19T11:48:16.002Z,5.10
2023-03-19T11:53:37.021Z,4.38
2023-03-19T11:59:12.571Z,5.50
2023-03-19T12:04:26.346Z,3.58
2023-03-19T12:15:12.801Z,5.75
2023-03-19T12:20:44.697Z,3.50
2023-03-19T12:26:00.668Z,3.88
2023-03-19T12:31:26.214Z,3.78
2023-03-19T12:36:27.950Z,4.78
2023-03-19T12:41:27.029Z,4.18
2023-03-19T12:46:38.070Z,3.30
2023-03-19T12:57:00.122Z,4.55
2023-03-19T13:02:24.161Z,3.80
2023-03-19T13:07:39.545Z,3.97
2023-03-19T13:12:37.520Z,2.72
2023-03-19T13:17:55.619Z,3.88
2023-03-19T13:22:57.748Z,2.42
2023-03-19T13:27:55.178Z,3.05
2023-03-19T13:33:00.932Z,3.90
2023-03-19T13:38:20.465Z,3.70
2023-03-19T13:43:30.204Z,2.53
2023-03-19T13:48:28.500Z,2.65
2023-03-19T13:53:32.278Z,2.97
2023-03-19T13:58:52.830Z,2.47
2023-03-19T14:10:07.532Z,4.00
2023-03-19T14:15:23.961Z,2.35
2023-03-19T14:20:16.713Z,4.05
2023-03-19T14:25:20.266Z,3.17
2023-03-19T14:30:44.515Z,2.22
2023-03-19T14:35:46.546Z,2.25
2023-03-19T14:41:03.392Z,2.95
2023-03-19T14:46:20.455Z,3.33
2023-03-19T14:51:57.461Z,4.13
2023-03-19T14:56:50.364Z,1.92
2023-03-19T15:01:51.563Z,5.00
2023-03-19T15:06:56.029Z,3.47
2023-03-19T15:11:58.814Z,5.07
2023-03-19T15:17:06.519Z,4.53
2023-03-19T15:22:25.063Z,2.40
2023-03-19T15:27:27.519Z,3.92
2023-03-19T15:32:56.922Z,2.85
2023-03-19T15:37:59.828Z,3.70
2023-03-19T15:42:53.325Z,2.75
2023-03-19T15:47:52.828Z,3.55
2023-03-19T15:52:52.553Z,2.88
2023-03-19T15:57:45.145Z,3.10
2023-03-19T16:02:42.845Z,1.67
2023-03-19T16:07:44.477Z,3.15
2023-03-19T16:12:41.149Z,2.75
2023-03-19T16:17:36.113Z,3.58
2023-03-19T16:22:32.846Z,5.25
2023-03-19T16:27:38.668Z,2.15
2023-03-19T16:32:32.544Z,1.60
2023-03-19T16:37:34.269Z,2.10
2023-03-19T16:42:33.562Z,2.27
2023-03-19T16:47:25.315Z,2.90
2023-03-19T16:52:23.979Z,2.57
2023-03-19T16:57:17.187Z,3.10
2023-03-19T17:02:17.437Z,2.30
2023-03-19T17:07:10.444Z,3.70
2023-03-19T17:12:04.621Z,1.93
2023-03-19T17:16:56.819Z,3.37
2023-03-19T17:21:56.733Z,2.40
2023-03-19T17:26:48.660Z,2.37
2023-03-19T17:31:40.650Z,3.00
2023-03-19T17:36:33.510Z,3.50
2023-03-19T17:41:25.321Z,3.23
2023-03-19T17:46:23.636Z,2.63
2023-03-19T17:51:17.094Z,2.57
2023-03-19T17:56:17.085Z,1.97
2023-03-19T18:01:28.180Z,3.53
2023-03-19T18:06:23.910Z,2.57
2023-03-19T18:11:15.912Z,3.53
2023-03-19T18:16:32.129Z,6.50
2023-03-19T18:21:24.236Z,4.43
2023-03-19T18:26:18.813Z,6.17
2023-03-19T18:31:22.890Z,2.60
2023-03-19T18:36:24.432Z,2.63
2023-03-19T18:41:21.836Z,3.57
2023-03-19T18:46:40.851Z,3.33
2023-03-19T18:51:32.886Z,2.47
2023-03-19T18:56:30.644Z,2.10
2023-03-19T19:01:22.922Z,2.27
2023-03-19T19:06:44.095Z,2.77
2023-03-19T19:11:41.474Z,2.33
2023-03-19T19:16:38.330Z,3.37
2023-03-19T19:21:30.336Z,2.47
2023-03-19T19:26:29.818Z,3.73
2023-03-19T19:31:30.494Z,3.07
2023-03-19T19:36:35.017Z,3.57
2023-03-19T19:41:27.888Z,2.63
2023-03-19T19:46:24.021Z,3.77
2023-03-19T19:51:29.940Z,3.00
2023-03-19T19:56:27.116Z,2.73
2023-03-19T20:01:25.118Z,2.57
2023-03-19T20:06:16.848Z,3.33
2023-03-19T20:11:30.885Z,3.07
2023-03-19T20:16:27.339Z,4.80
2023-03-19T20:21:20.218Z,2.97
2023-03-19T20:26:20.849Z,2.53
2023-03-19T20:31:23.167Z,2.63
2023-03-19T20:36:16.184Z,2.07
2023-03-19T20:41:22.663Z,2.20
2023-03-19T20:46:25.246Z,2.60
2023-03-19T20:51:24.995Z,2.23
2023-03-19T20:56:21.928Z,2.53
2023-03-19T21:06:25.754Z,2.53
2023-03-19T21:11:21.785Z,3.13
2023-03-19T21:16:26.078Z,2.73
2023-03-19T21:21:20.005Z,2.57
2023-03-19T21:26:22.203Z,2.77
2023-03-19T21:31:20.434Z,2.93
2023-03-19T21:36:12.709Z,2.57
2023-03-19T21:41:32.686Z,2.43
2023-03-19T21:46:29.483Z,2.40
2023-03-19T21:51:22.949Z,2.93
2023-03-19T21:56:32.444Z,3.90
2023-03-19T22:01:25.496Z,3.30
2023-03-19T22:06:17.282Z,5.27
2023-03-19T22:11:28.583Z,1.93
2023-03-19T22:16:24.509Z,2.10
2023-03-19T22:21:20.435Z,1.73
2023-03-19T22:26:40.376Z,2.77
2023-03-19T22:31:34.037Z,3.77
2023-03-19T22:36:26.782Z,2.43
2023-03-19T22:41:34.687Z,3.63
2023-03-19T22:46:27.569Z,2.77
2023-03-19T22:51:27.076Z,2.83
2023-03-19T22:56:21.248Z,3.47
2023-03-19T23:01:22.478Z,3.77
2023-03-19T23:06:29.825Z,3.20
2023-03-19T23:11:22.324Z,2.93
2023-03-19T23:16:24.594Z,4.07
2023-03-19T23:21:19.415Z,3.43
2023-03-19T23:26:34.417Z,3.00
2023-03-19T23:31:26.156Z,3.47
2023-03-19T23:36:18.331Z,4.10
2023-03-19T23:41:24.341Z,2.70
2023-03-19T23:46:16.174Z,5.30
2023-03-19T23:51:13.800Z,5.57
2023-03-19T23:56:28.519Z,2.90
